Detroit, Michigan
Traffic Map
Current Weather Conditions
Detroit, Michigan
Overcast
Overcast
88°
Feels Like: 93°
Wind Chill: 88° Ceiling: 25000
Heat Index: 93° Visibility: 15mi
Dew Point: 70° Wind: 14mph
Humidity: 55% Direction: 210° (SSW)
Pressure: 30.02in Gusts: 0mph
Raw Report DataCYQG 261700Z 21012KT 15SM SCT060 OVC250 31/21 A3002 RMK SC4CI4 SLP164 DENSITY ALT 2400FT
Traffic Incident Summary
Active as of:
Severity:
Category:
InformationThere was an issue retrieving the traffic information for this location. Please try a different location or try again shortly.
Advertisements
Track Severe Weather on mobile